createdAt,value
2018-04-02T00:01:40.538Z,1.20
2018-04-02T00:04:08.839Z,1.20
2018-04-02T00:06:36.421Z,1.20
2018-04-02T00:09:03.953Z,1.20
2018-04-02T00:11:31.486Z,1.20
2018-04-02T00:13:59.058Z,1.20
2018-04-02T00:16:26.584Z,1.20
2018-04-02T00:18:54.147Z,1.20
2018-04-02T00:21:22.481Z,1.20
2018-04-02T00:23:50.019Z,1.20
2018-04-02T00:26:17.556Z,1.20
2018-04-02T00:28:45.143Z,1.20
2018-04-02T00:31:13.446Z,1.20
2018-04-02T00:33:42.658Z,1.10
2018-04-02T00:36:10.993Z,1.10
2018-04-02T00:38:38.531Z,1.10
2018-04-02T00:41:06.055Z,1.10
2018-04-02T00:43:33.662Z,1.10
2018-04-02T00:46:01.952Z,1.10
2018-04-02T00:48:29.485Z,1.10
2018-04-02T00:50:57.054Z,1.10
2018-04-02T00:53:24.586Z,1.10
2018-04-02T00:55:52.113Z,1.00
2018-04-02T00:58:20.448Z,1.00
2018-04-02T01:00:47.993Z,1.00
2018-04-02T01:03:15.606Z,1.00
2018-04-02T01:05:43.179Z,1.00
2018-04-02T01:08:10.706Z,0.90
2018-04-02T01:10:38.276Z,0.90
2018-04-02T01:13:05.865Z,0.90
2018-04-02T01:15:33.399Z,0.90
2018-04-02T01:18:00.942Z,0.90
2018-04-02T01:20:28.521Z,0.90
2018-04-02T01:22:56.050Z,0.90
2018-04-02T01:25:23.579Z,0.90
2018-04-02T01:27:51.142Z,0.90
2018-04-02T01:30:18.685Z,0.80
2018-04-02T01:32:46.212Z,0.80
2018-04-02T01:35:14.546Z,0.80
2018-04-02T01:37:42.813Z,0.80
2018-04-02T01:40:10.347Z,0.80
2018-04-02T01:42:38.694Z,0.80
2018-04-02T01:45:06.233Z,0.80
2018-04-02T01:47:33.771Z,0.80
2018-04-02T01:50:01.366Z,0.80
2018-04-02T01:52:28.912Z,0.70
2018-04-02T01:54:56.450Z,0.70
2018-04-02T01:57:24.018Z,0.70
2018-04-02T01:59:51.570Z,0.70
2018-04-02T02:02:19.093Z,0.70
2018-04-02T02:04:46.673Z,0.70
2018-04-02T02:07:14.985Z,0.80
2018-04-02T02:09:43.665Z,0.80
2018-04-02T02:12:12.930Z,0.80
2018-04-02T02:14:40.458Z,0.80
2018-04-02T02:17:07.987Z,0.80
2018-04-02T02:19:35.558Z,0.80
2018-04-02T02:22:03.086Z,0.80
2018-04-02T02:24:30.618Z,0.70
2018-04-02T02:26:58.186Z,0.70
2018-04-02T02:29:25.817Z,0.70
2018-04-02T02:31:53.449Z,0.70
2018-04-02T02:34:21.118Z,0.60
2018-04-02T02:36:48.756Z,0.70
2018-04-02T02:39:16.368Z,0.60
2018-04-02T02:41:44.037Z,0.60
2018-04-02T02:44:11.654Z,0.60
2018-04-02T02:46:39.271Z,0.60
2018-04-02T02:49:07.698Z,0.60
2018-04-02T02:51:35.333Z,0.60
2018-04-02T02:54:03.726Z,0.60
2018-04-02T02:56:32.257Z,0.60
2018-04-02T02:58:59.906Z,0.60
2018-04-02T03:01:27.526Z,0.60
2018-04-02T03:03:55.280Z,0.50
2018-04-02T03:06:22.943Z,0.60
2018-04-02T03:08:50.567Z,0.50
2018-04-02T03:11:18.226Z,0.50
2018-04-02T03:13:45.842Z,0.50
2018-04-02T03:16:14.222Z,0.40
2018-04-02T03:18:43.660Z,0.40
2018-04-02T03:21:11.286Z,0.40
2018-04-02T03:23:38.903Z,0.40
2018-04-02T03:26:06.560Z,0.50
2018-04-02T03:28:34.947Z,0.40
2018-04-02T03:31:03.324Z,0.40
2018-04-02T03:33:31.000Z,0.40
2018-04-02T03:35:58.610Z,0.40
2018-04-02T03:38:26.228Z,0.40
2018-04-02T03:40:53.888Z,0.40
2018-04-02T03:43:21.531Z,0.40
2018-04-02T03:45:49.150Z,0.40
2018-04-02T03:48:16.807Z,0.40
2018-04-02T03:50:44.427Z,0.40
2018-04-02T03:53:13.745Z,0.30
2018-04-02T03:55:41.972Z,0.30
2018-04-02T03:58:09.595Z,0.30
2018-04-02T04:00:37.979Z,0.20
2018-04-02T04:03:06.418Z,0.20
2018-04-02T04:05:34.063Z,0.20
2018-04-02T04:08:01.678Z,0.10
2018-04-02T04:10:29.342Z,0.10
2018-04-02T04:12:56.963Z,0.10
2018-04-02T04:15:25.396Z,0.00
2018-04-02T04:17:53.058Z,0.00
2018-04-02T04:20:20.682Z,0.00
2018-04-02T04:22:48.395Z,0.00
2018-04-02T04:25:16.062Z,-0.10
2018-04-02T04:27:43.691Z,-0.10
2018-04-02T04:30:11.325Z,-0.10
2018-04-02T04:32:38.994Z,-0.20
2018-04-02T04:35:06.623Z,-0.20
2018-04-02T04:37:34.258Z,-0.10
2018-04-02T04:40:01.921Z,-0.10
2018-04-02T04:42:29.534Z,0.00
2018-04-02T04:44:57.146Z,-0.10
2018-04-02T04:47:25.576Z,-0.10
2018-04-02T04:49:53.223Z,-0.10
2018-04-02T04:52:20.839Z,-0.10
2018-04-02T04:54:48.503Z,-0.10
2018-04-02T04:57:16.123Z,-0.10
2018-04-02T04:59:44.525Z,0.00
2018-04-02T05:02:12.179Z,0.00
2018-04-02T05:04:40.550Z,0.00
2018-04-02T05:07:08.166Z,0.00
2018-04-02T05:09:35.830Z,0.10
2018-04-02T05:12:04.224Z,0.30
2018-04-02T05:14:31.853Z,0.30
2018-04-02T05:16:59.518Z,0.30
2018-04-02T05:19:27.130Z,0.40
2018-04-02T05:21:55.524Z,0.50
2018-04-02T05:24:23.943Z,0.50
2018-04-02T05:26:51.559Z,0.50
2018-04-02T05:29:19.181Z,0.50
2018-04-02T05:31:46.845Z,0.60
2018-04-02T05:34:14.526Z,0.60
2018-04-02T05:36:42.151Z,0.70
2018-04-02T05:39:09.818Z,0.80
2018-04-02T05:41:37.434Z,0.90
2018-04-02T05:44:05.821Z,1.90
2018-04-02T05:46:33.491Z,1.80
2018-04-02T05:49:01.900Z,2.80
2018-04-02T05:51:29.539Z,2.80
2018-04-02T05:53:57.195Z,3.50
2018-04-02T05:56:24.813Z,4.20
2018-04-02T05:58:52.430Z,5.10
2018-04-02T06:01:20.082Z,5.60
2018-04-02T06:03:47.705Z,5.80
2018-04-02T06:06:16.090Z,6.10
2018-04-02T06:08:43.790Z,6.10
2018-04-02T06:11:12.171Z,7.00
2018-04-02T06:13:40.579Z,7.30
2018-04-02T06:16:08.261Z,7.30
2018-04-02T06:18:35.898Z,7.60
2018-04-02T06:21:04.290Z,7.40
2018-04-02T06:23:31.994Z,7.40
2018-04-02T06:25:59.929Z,7.30
2018-04-02T06:28:27.548Z,7.20
2018-04-02T06:30:55.244Z,7.10
2018-04-02T06:33:22.862Z,7.00
2018-04-02T06:35:51.322Z,6.70
2018-04-02T06:38:19.023Z,6.70
2018-04-02T06:40:46.640Z,6.90
2018-04-02T06:43:14.259Z,6.90
2018-04-02T06:45:41.919Z,7.10
2018-04-02T06:48:09.539Z,6.70
2018-04-02T06:50:37.918Z,6.30
2018-04-02T06:53:06.342Z,6.20
2018-04-02T06:55:33.982Z,6.20
2018-04-02T06:58:02.362Z,6.00
2018-04-02T07:00:30.052Z,6.00
2018-04-02T07:02:58.461Z,5.30
2018-04-02T07:05:26.086Z,5.30
2018-04-02T07:07:53.776Z,5.20
2018-04-02T07:10:21.388Z,5.20
2018-04-02T07:12:49.026Z,5.50
2018-04-02T07:15:17.454Z,5.70
2018-04-02T07:17:46.316Z,5.80
2018-04-02T07:20:13.931Z,5.80
2018-04-02T07:22:41.627Z,5.90
2018-04-02T07:25:09.260Z,5.90
2018-04-02T07:27:36.910Z,6.30
2018-04-02T07:30:05.342Z,7.10
2018-04-02T07:32:32.959Z,7.10
2018-04-02T07:35:00.574Z,6.60
2018-04-02T07:37:28.248Z,6.30
2018-04-02T07:39:55.865Z,6.30
2018-04-02T07:42:23.486Z,6.20
2018-04-02T07:44:51.149Z,6.30
2018-04-02T07:47:19.640Z,7.30
2018-04-02T07:49:48.035Z,8.10
2018-04-02T07:52:15.726Z,8.10
2018-04-02T07:54:43.344Z,7.90
2018-04-02T07:57:10.967Z,7.50
2018-04-02T07:59:38.807Z,7.50
2018-04-02T08:02:06.447Z,8.00
2018-04-02T08:04:34.071Z,8.70
2018-04-02T08:07:02.491Z,9.20
2018-04-02T08:09:30.126Z,9.20
2018-04-02T08:11:57.743Z,8.80
2018-04-02T08:14:25.418Z,8.80
2018-04-02T08:16:53.038Z,8.90
2018-04-02T08:19:20.659Z,8.90
2018-04-02T08:21:48.880Z,9.20
2018-04-02T08:24:16.714Z,9.00
2018-04-02T08:26:44.331Z,9.00
2018-04-02T08:29:11.995Z,8.90
2018-04-02T08:31:39.647Z,8.80
2018-04-02T08:34:07.295Z,9.00
2018-04-02T08:36:35.712Z,9.90
2018-04-02T08:39:03.327Z,9.90
2018-04-02T08:41:30.960Z,10.00
2018-04-02T08:43:58.614Z,10.50
2018-04-02T08:46:26.222Z,9.70
2018-04-02T08:48:53.842Z,9.80
2018-04-02T08:51:22.262Z,11.00
2018-04-02T08:53:49.883Z,11.00
2018-04-02T08:56:17.518Z,11.40
2018-04-02T08:58:45.285Z,11.20
2018-04-02T09:01:12.912Z,11.60
2018-04-02T09:03:40.519Z,11.70
2018-04-02T09:06:08.211Z,11.50
2018-04-02T09:08:35.822Z,11.00
2018-04-02T09:11:03.440Z,9.90
2018-04-02T09:13:31.130Z,9.60
2018-04-02T09:15:58.758Z,10.10
2018-04-02T09:18:27.150Z,10.20
2018-04-02T09:20:55.576Z,10.00
2018-04-02T09:23:23.189Z,10.00
2018-04-02T09:25:50.803Z,10.10
2018-04-02T09:28:18.498Z,10.60
2018-04-02T09:30:46.770Z,10.40
2018-04-02T09:33:14.431Z,10.20
2018-04-02T09:35:42.868Z,10.20
2018-04-02T09:38:10.486Z,10.20
2018-04-02T09:40:38.865Z,10.90
2018-04-02T09:43:06.547Z,10.90
2018-04-02T09:45:34.159Z,11.20
2018-04-02T09:48:01.775Z,10.80
2018-04-02T09:50:29.431Z,10.40
2018-04-02T09:52:57.052Z,10.40
2018-04-02T09:55:24.746Z,11.10
2018-04-02T09:57:52.422Z,11.60
2018-04-02T10:00:25.705Z,11.80
2018-04-02T10:02:54.126Z,11.90
2018-04-02T10:05:21.742Z,11.90
2018-04-02T10:07:49.365Z,11.00
2018-04-02T10:10:17.203Z,10.60
2018-04-02T10:12:45.595Z,10.50
2018-04-02T10:15:13.986Z,10.20
2018-04-02T10:17:41.702Z,10.20
2018-04-02T10:20:09.322Z,10.30
2018-04-02T10:22:36.943Z,10.80
2018-04-02T10:25:04.606Z,10.80
2018-04-02T10:27:32.231Z,10.50
2018-04-02T10:30:00.023Z,10.60
2018-04-02T10:32:28.468Z,11.10
2018-04-02T10:34:56.127Z,11.10
2018-04-02T10:37:23.755Z,11.50
2018-04-02T10:39:51.423Z,11.80
2018-04-02T10:42:19.045Z,12.00
2018-04-02T10:44:47.375Z,11.90
2018-04-02T10:47:15.027Z,12.20
2018-04-02T10:49:42.632Z,12.50
2018-04-02T10:52:10.274Z,12.50
2018-04-02T10:54:37.943Z,12.00
2018-04-02T10:57:05.560Z,11.50
2018-04-02T10:59:33.183Z,11.10
2018-04-02T11:02:00.947Z,11.30
2018-04-02T11:04:28.571Z,11.40
2018-04-02T11:06:56.290Z,11.20
2018-04-02T11:09:23.962Z,11.30
2018-04-02T11:11:51.663Z,11.50
2018-04-02T11:14:19.418Z,11.80
2018-04-02T11:16:48.330Z,11.70
2018-04-02T11:19:15.948Z,11.70
2018-04-02T11:21:43.579Z,11.30
2018-04-02T11:24:11.232Z,11.20
2018-04-02T11:26:38.859Z,10.90
2018-04-02T11:29:06.474Z,10.70
2018-04-02T11:31:34.896Z,10.70
2018-04-02T11:34:02.575Z,10.60
2018-04-02T11:36:30.446Z,10.70
2018-04-02T11:38:58.139Z,10.90
2018-04-02T11:41:25.760Z,11.20
2018-04-02T11:43:54.309Z,11.30
2018-04-02T11:46:22.040Z,11.30
2018-04-02T11:48:49.735Z,11.20
2018-04-02T11:51:18.836Z,11.80
2018-04-02T11:53:46.626Z,11.80
2018-04-02T11:56:14.703Z,11.20
2018-04-02T11:58:42.372Z,11.30
2018-04-02T12:01:10.067Z,11.00
2018-04-02T12:03:37.706Z,10.90
2018-04-02T12:06:05.403Z,11.20
2018-04-02T12:08:33.074Z,11.10
2018-04-02T12:11:00.694Z,11.40
2018-04-02T12:13:28.322Z,11.70
2018-04-02T12:15:55.983Z,12.00
2018-04-02T12:18:23.604Z,11.50
2018-04-02T12:20:51.311Z,11.70
2018-04-02T12:23:18.967Z,11.50
2018-04-02T12:25:48.327Z,11.20
2018-04-02T12:28:15.942Z,11.20
2018-04-02T12:30:43.627Z,11.40
2018-04-02T12:33:12.006Z,11.80
2018-04-02T12:35:39.647Z,11.90
2018-04-02T12:38:07.311Z,12.10
2018-04-02T12:40:34.977Z,12.20
2018-04-02T12:43:02.630Z,12.00
2018-04-02T12:45:30.670Z,11.50
2018-04-02T12:47:59.092Z,11.30
2018-04-02T12:50:27.472Z,10.80
2018-04-02T12:52:55.898Z,10.50
2018-04-02T12:55:23.535Z,10.40
2018-04-02T12:57:51.167Z,10.10
2018-04-02T13:00:19.072Z,10.30
2018-04-02T13:02:46.708Z,10.60
2018-04-02T13:05:14.322Z,10.80
2018-04-02T13:07:42.011Z,11.10
2018-04-02T13:10:09.644Z,11.00
2018-04-02T13:12:37.318Z,11.10
2018-04-02T13:15:04.995Z,11.30
2018-04-02T13:17:32.614Z,10.90
2018-04-02T13:20:00.995Z,11.10
2018-04-02T13:22:29.431Z,11.20
2018-04-02T13:24:57.058Z,11.20
2018-04-02T13:27:24.676Z,11.40
2018-04-02T13:29:52.334Z,11.40
2018-04-02T13:32:19.952Z,11.50
2018-04-02T13:34:47.623Z,11.50
2018-04-02T13:37:15.359Z,11.20
2018-04-02T13:39:42.982Z,11.40
2018-04-02T13:42:10.594Z,11.50
2018-04-02T13:44:39.844Z,11.60
2018-04-02T13:47:07.476Z,11.60
2018-04-02T13:49:35.850Z,11.50
2018-04-02T13:52:04.285Z,11.50
2018-04-02T13:54:31.899Z,11.40
2018-04-02T13:56:59.534Z,11.40
2018-04-02T13:59:27.217Z,11.30
2018-04-02T14:01:54.835Z,11.20
2018-04-02T14:04:23.216Z,11.10
2018-04-02T14:06:50.904Z,11.10
2018-04-02T14:09:20.220Z,10.80
2018-04-02T14:11:49.538Z,10.90
2018-04-02T14:14:18.051Z,10.90
2018-04-02T14:16:45.662Z,10.80
2018-04-02T14:19:13.416Z,11.10
2018-04-02T14:21:41.076Z,11.30
2018-04-02T14:24:08.701Z,11.40
2018-04-02T14:26:36.316Z,11.30
2018-04-02T14:29:04.011Z,11.00
2018-04-02T14:31:31.643Z,10.80
2018-04-02T14:34:00.021Z,10.40
2018-04-02T14:36:28.475Z,10.40
2018-04-02T14:38:56.096Z,10.40
2018-04-02T14:41:24.524Z,10.70
2018-04-02T14:43:52.185Z,10.60
2018-04-02T14:46:19.819Z,10.60
2018-04-02T14:48:47.438Z,10.70
2018-04-02T14:51:15.111Z,10.60
2018-04-02T14:53:42.727Z,10.50
2018-04-02T14:56:10.349Z,10.40
2018-04-02T14:58:38.060Z,10.40
2018-04-02T15:01:05.688Z,10.50
2018-04-02T15:03:33.315Z,10.40
2018-04-02T15:06:00.990Z,10.40
2018-04-02T15:08:28.603Z,10.40
2018-04-02T15:10:56.218Z,10.40
2018-04-02T15:13:23.887Z,10.30
2018-04-02T15:15:51.572Z,10.20
2018-04-02T15:18:19.877Z,10.10
2018-04-02T15:20:47.540Z,10.10
2018-04-02T15:23:15.204Z,10.10
2018-04-02T15:25:42.814Z,10.10
2018-04-02T15:28:11.235Z,9.90
2018-04-02T15:30:38.867Z,9.90
2018-04-02T15:33:06.499Z,9.90
2018-04-02T15:35:34.167Z,10.00
2018-04-02T15:38:01.776Z,9.90
2018-04-02T15:40:29.386Z,9.90
2018-04-02T15:42:57.050Z,10.00
2018-04-02T15:45:25.477Z,10.00
2018-04-02T15:47:53.131Z,10.00
2018-04-02T15:50:20.786Z,10.00
2018-04-02T15:52:50.082Z,9.80
2018-04-02T15:55:17.722Z,9.80
2018-04-02T15:57:45.378Z,9.80
2018-04-02T16:00:12.991Z,9.80
2018-04-02T16:02:40.598Z,9.80
2018-04-02T16:05:09.024Z,9.80
2018-04-02T16:07:36.639Z,9.80
2018-04-02T16:10:04.363Z,9.80
2018-04-02T16:12:32.038Z,9.80
2018-04-02T16:14:59.674Z,9.70
2018-04-02T16:17:28.186Z,9.70
2018-04-02T16:19:55.858Z,9.80
2018-04-02T16:22:23.479Z,9.80
2018-04-02T16:24:51.099Z,9.80
2018-04-02T16:27:18.751Z,9.80
2018-04-02T16:29:47.130Z,9.90
2018-04-02T16:32:14.751Z,9.90
2018-04-02T16:34:42.419Z,9.80
2018-04-02T16:37:10.130Z,9.80
2018-04-02T16:39:37.746Z,9.80
2018-04-02T16:42:06.290Z,9.80
2018-04-02T16:44:33.990Z,9.80
2018-04-02T16:47:02.427Z,9.80
2018-04-02T16:49:30.097Z,9.80
2018-04-02T16:51:57.745Z,9.80
2018-04-02T16:54:25.479Z,9.80
2018-04-02T16:56:53.148Z,9.80
2018-04-02T16:59:20.766Z,9.80
2018-04-02T17:01:49.157Z,9.60
2018-04-02T17:04:17.589Z,9.50
2018-04-02T17:06:45.251Z,9.50
2018-04-02T17:09:12.880Z,9.50
2018-04-02T17:11:40.544Z,9.40
2018-04-02T17:14:08.157Z,9.30
2018-04-02T17:16:36.563Z,9.20
2018-04-02T17:19:04.244Z,9.20
2018-04-02T17:21:31.858Z,9.00
2018-04-02T17:24:00.242Z,8.90
2018-04-02T17:26:27.934Z,8.90
2018-04-02T17:28:56.322Z,8.90
2018-04-02T17:31:23.967Z,8.90
2018-04-02T17:33:51.645Z,8.90
2018-04-02T17:36:19.400Z,8.90
2018-04-02T17:38:47.022Z,8.90
2018-04-02T17:41:14.691Z,8.90
2018-04-02T17:43:42.316Z,8.80
2018-04-02T17:46:09.940Z,8.90
2018-04-02T17:48:38.434Z,8.80
2018-04-02T17:51:06.869Z,8.80
2018-04-02T17:53:34.500Z,8.80
2018-04-02T17:56:02.251Z,8.80
2018-04-02T17:58:29.867Z,8.70
2018-04-02T18:00:58.247Z,8.70
2018-04-02T18:03:25.942Z,8.70
2018-04-02T18:05:53.559Z,8.70
2018-04-02T18:08:21.174Z,8.70
2018-04-02T18:10:48.848Z,8.50
2018-04-02T18:13:16.718Z,8.40
2018-04-02T18:15:44.352Z,8.30
2018-04-02T18:18:12.009Z,8.30
2018-04-02T18:20:39.639Z,8.20
2018-04-02T18:23:07.253Z,8.10
2018-04-02T18:25:35.735Z,8.10
2018-04-02T18:28:03.355Z,8.10
2018-04-02T18:30:30.979Z,8.10
2018-04-02T18:32:58.648Z,8.00
2018-04-02T18:35:26.268Z,8.10
2018-04-02T18:37:54.672Z,8.00
2018-04-02T18:40:23.140Z,8.00
2018-04-02T18:42:51.611Z,8.00
2018-04-02T18:45:19.283Z,8.00
2018-04-02T18:47:47.034Z,8.00
2018-04-02T18:50:14.650Z,7.90
2018-04-02T18:52:42.280Z,7.90
2018-04-02T18:55:09.934Z,7.90
2018-04-02T18:57:37.739Z,7.80
2018-04-02T19:00:05.511Z,7.80
2018-04-02T19:02:33.195Z,7.80
2018-04-02T19:05:00.820Z,7.70
2018-04-02T19:07:29.356Z,7.70
2018-04-02T19:09:57.022Z,7.70
2018-04-02T19:12:24.691Z,7.70
2018-04-02T19:14:52.423Z,7.70
2018-04-02T19:17:21.779Z,7.60
2018-04-02T19:19:49.420Z,7.60
2018-04-02T19:22:18.579Z,7.60
2018-04-02T19:24:46.249Z,7.60
2018-04-02T19:27:13.891Z,7.60
2018-04-02T19:29:42.286Z,7.60
2018-04-02T19:32:09.983Z,7.60
2018-04-02T19:34:37.606Z,7.60
2018-04-02T19:37:05.310Z,7.60
2018-04-02T19:39:32.967Z,7.70
2018-04-02T19:42:01.401Z,7.70
2018-04-02T19:44:29.044Z,7.70
2018-04-02T19:46:57.478Z,7.60
2018-04-02T19:49:25.103Z,7.60
2018-04-02T19:51:53.516Z,7.60
2018-04-02T19:54:21.210Z,7.60
2018-04-02T19:56:48.857Z,7.60
2018-04-02T19:59:17.243Z,7.60
2018-04-02T20:01:44.915Z,7.60
2018-04-02T20:04:12.531Z,7.60
2018-04-02T20:06:40.147Z,7.50
2018-04-02T20:09:08.669Z,7.50
2018-04-02T20:11:36.658Z,7.50
2018-04-02T20:14:04.287Z,7.50
2018-04-02T20:16:32.719Z,7.60
2018-04-02T20:19:00.340Z,7.60
2018-04-02T20:21:28.237Z,7.60
2018-04-02T20:23:56.030Z,7.60
2018-04-02T20:26:23.658Z,7.60
2018-04-02T20:28:51.468Z,7.60
2018-04-02T20:31:19.271Z,7.50
2018-04-02T20:33:47.872Z,7.50
2018-04-02T20:36:15.495Z,7.60
2018-04-02T20:38:43.160Z,7.50
2018-04-02T20:41:10.795Z,7.50
2018-04-02T20:43:38.438Z,7.50
2018-04-02T20:46:07.564Z,7.50
2018-04-02T20:48:35.199Z,7.50
2018-04-02T20:51:03.606Z,7.40
2018-04-02T20:53:32.063Z,7.50
2018-04-02T20:55:59.686Z,7.50
2018-04-02T20:58:27.304Z,7.50
2018-04-02T21:00:55.002Z,7.50
2018-04-02T21:03:23.451Z,7.40
2018-04-02T21:05:52.199Z,7.30
2018-04-02T21:08:21.687Z,7.30
2018-04-02T21:10:49.306Z,7.30
2018-04-02T21:13:16.926Z,7.30
2018-04-02T21:15:44.691Z,7.30
2018-04-02T21:18:12.334Z,7.30
2018-04-02T21:20:39.970Z,7.30
2018-04-02T21:23:07.639Z,7.30
2018-04-02T21:25:35.270Z,7.20
2018-04-02T21:28:02.888Z,7.20
2018-04-02T21:30:32.171Z,7.10
2018-04-02T21:32:59.783Z,7.10
2018-04-02T21:35:28.205Z,7.10
2018-04-02T21:37:55.916Z,7.10
2018-04-02T21:40:23.775Z,7.00
2018-04-02T21:42:52.310Z,7.00
2018-04-02T21:45:19.962Z,7.00
2018-04-02T21:47:47.595Z,6.90
2018-04-02T21:50:15.290Z,6.80
2018-04-02T21:52:42.953Z,6.90
2018-04-02T21:55:10.575Z,6.80
2018-04-02T21:57:38.307Z,6.80
2018-04-02T22:00:06.934Z,6.80
2018-04-02T22:02:34.602Z,6.80
2018-04-02T22:05:02.199Z,6.80
2018-04-02T22:07:31.851Z,6.90
2018-04-02T22:09:59.488Z,6.90
2018-04-02T22:12:27.112Z,6.90
2018-04-02T22:14:54.779Z,6.90
2018-04-02T22:17:22.395Z,6.90
2018-04-02T22:19:50.020Z,6.90
2018-04-02T22:22:17.691Z,6.90
2018-04-02T22:24:45.312Z,6.90
2018-04-02T22:27:12.931Z,6.90
2018-04-02T22:29:40.590Z,6.90
2018-04-02T22:32:08.966Z,7.00
2018-04-02T22:34:37.359Z,6.90
2018-04-02T22:37:05.018Z,6.90
2018-04-02T22:39:32.639Z,6.90
2018-04-02T22:42:00.254Z,7.00
2018-04-02T22:44:27.906Z,7.00
2018-04-02T22:46:55.523Z,7.00
2018-04-02T22:49:23.140Z,7.00
2018-04-02T22:51:51.726Z,7.00
2018-04-02T22:54:19.347Z,7.00
2018-04-02T22:56:46.958Z,7.00
2018-04-02T22:59:15.386Z,7.00
2018-04-02T23:01:43.003Z,7.00
2018-04-02T23:04:11.390Z,7.10
2018-04-02T23:06:39.151Z,7.10
2018-04-02T23:09:06.767Z,7.00
2018-04-02T23:11:34.383Z,7.00
2018-04-02T23:14:02.138Z,7.00
2018-04-02T23:16:29.818Z,7.00
2018-04-02T23:18:57.430Z,7.00
2018-04-02T23:21:25.091Z,7.00
2018-04-02T23:23:52.710Z,7.00
2018-04-02T23:26:20.344Z,7.00
2018-04-02T23:28:48.002Z,7.00
2018-04-02T23:31:15.610Z,7.00
2018-04-02T23:33:43.990Z,6.90
2018-04-02T23:36:11.663Z,6.90
2018-04-02T23:38:40.059Z,6.90
2018-04-02T23:41:08.438Z,6.90
2018-04-02T23:43:36.102Z,6.90
2018-04-02T23:46:03.723Z,6.90
2018-04-02T23:48:31.426Z,6.90
2018-04-02T23:50:59.188Z,6.90
2018-04-02T23:53:26.806Z,6.80
2018-04-02T23:55:54.418Z,6.80
2018-04-02T23:58:22.910Z,6.90
